Dumfries, Virginia
Current Conditions -  °F | °C
As of 3:56 AM on Sunday 23 Nov 2014 (Local Time) from KNYG Reporting Station
Scattered Clouds Scattered Clouds  
Wind Chill: 35°   Ceiling: Unl
Heat Index: 42°   Visibility: 10mi
Dew Point: 23°   Wind: 13mph
Humidity: 47%   Direction: 210°SSW
Pressure: 30.23"   Gusts: NA
Location:  38.57°N, 77.33°W
Report Text: KNYG 230856Z AUTO 21011KT 10SM SCT110 06/M05 A3023 RMK AO2 SLP237 T00561050 58013 $
Loading
Personal Weather Stations






























Interactive Weather Map New forecast layout! Learn more

10-Day Weather Forecast

Advertisements
Track Severe Weather on mobile